sensor_id;sensor_type;location;lat;lon;timestamp;temperature;humidity
4693;DHT22;11710;48.024;16.296;2023-06-24T04:34:28;17.70;99.90
4693;DHT22;11710;48.024;16.296;2023-06-24T04:36:56;17.80;99.90
4693;DHT22;11710;48.024;16.296;2023-06-24T04:39:23;17.80;99.90
4693;DHT22;11710;48.024;16.296;2023-06-24T04:41:50;17.80;99.90
4693;DHT22;11710;48.024;16.296;2023-06-24T04:44:18;17.80;99.90
4693;DHT22;11710;48.024;16.296;2023-06-24T04:46:46;17.80;99.90
4693;DHT22;11710;48.024;16.296;2023-06-24T04:49:13;17.80;99.90
4693;DHT22;11710;48.024;16.296;2023-06-24T04:51:42;17.80;99.90
4693;DHT22;11710;48.024;16.296;2023-06-24T04:54:10;17.80;99.90
4693;DHT22;11710;48.024;16.296;2023-06-24T04:56:39;17.80;99.90
4693;DHT22;11710;48.024;16.296;2023-06-24T04:59:06;17.80;99.90
4693;DHT22;11710;48.024;16.296;2023-06-24T05:01:33;17.80;99.90
4693;DHT22;11710;48.024;16.296;2023-06-24T05:04:00;17.80;99.90
4693;DHT22;11710;48.024;16.296;2023-06-24T05:06:27;17.80;99.90
4693;DHT22;11710;48.024;16.296;2023-06-24T05:08:56;17.90;99.90
4693;DHT22;11710;48.024;16.296;2023-06-24T05:11:23;18.00;99.90
4693;DHT22;11710;48.024;16.296;2023-06-24T05:13:50;18.00;99.90
4693;DHT22;11710;48.024;16.296;2023-06-24T05:16:17;18.10;99.90
4693;DHT22;11710;48.024;16.296;2023-06-24T05:18:45;18.20;99.90
4693;DHT22;11710;48.024;16.296;2023-06-24T05:21:12;18.30;99.90
4693;DHT22;11710;48.024;16.296;2023-06-24T05:23:39;18.40;99.90
4693;DHT22;11710;48.024;16.296;2023-06-24T05:26:08;18.50;99.90
4693;DHT22;11710;48.024;16.296;2023-06-24T05:28:36;18.60;99.90
4693;DHT22;11710;48.024;16.296;2023-06-24T05:31:04;18.70;99.90
4693;DHT22;11710;48.024;16.296;2023-06-24T05:33:31;18.80;99.90
4693;DHT22;11710;48.024;16.296;2023-06-24T05:35:58;18.90;99.90
4693;DHT22;11710;48.024;16.296;2023-06-24T05:38:25;19.00;99.90
4693;DHT22;11710;48.024;16.296;2023-06-24T05:40:52;19.00;99.90
4693;DHT22;11710;48.024;16.296;2023-06-24T05:43:21;19.00;99.90
4693;DHT22;11710;48.024;16.296;2023-06-24T05:45:48;19.00;99.90
4693;DHT22;11710;48.024;16.296;2023-06-24T05:48:15;19.00;99.90
4693;DHT22;11710;48.024;16.296;2023-06-24T05:50:42;19.00;99.90
4693;DHT22;11710;48.024;16.296;2023-06-24T05:53:09;19.00;99.90
4693;DHT22;11710;48.024;16.296;2023-06-24T05:55:36;19.00;99.90
4693;DHT22;11710;48.024;16.296;2023-06-24T05:58:04;19.00;99.90
4693;DHT22;11710;48.024;16.296;2023-06-24T06:00:32;18.90;99.90
4693;DHT22;11710;48.024;16.296;2023-06-24T06:02:59;19.00;99.90
4693;DHT22;11710;48.024;16.296;2023-06-24T06:05:26;18.90;99.90
4693;DHT22;11710;48.024;16.296;2023-06-24T06:07:54;18.90;99.90
4693;DHT22;11710;48.024;16.296;2023-06-24T06:10:21;18.90;99.90
4693;DHT22;11710;48.024;16.296;2023-06-24T06:12:48;18.80;99.90
4693;DHT22;11710;48.024;16.296;2023-06-24T06:15:15;18.80;99.90
4693;DHT22;11710;48.024;16.296;2023-06-24T06:17:45;18.80;99.90
4693;DHT22;11710;48.024;16.296;2023-06-24T06:20:12;18.80;99.90
4693;DHT22;11710;48.024;16.296;2023-06-24T06:22:39;18.70;99.90
4693;DHT22;11710;48.024;16.296;2023-06-24T06:25:07;18.70;99.90
4693;DHT22;11710;48.024;16.296;2023-06-24T06:27:34;18.70;99.90
4693;DHT22;11710;48.024;16.296;2023-06-24T06:30:01;18.60;99.90
4693;DHT22;11710;48.024;16.296;2023-06-24T06:32:28;18.60;99.90
4693;DHT22;11710;48.024;16.296;2023-06-24T06:34:57;18.60;99.90
4693;DHT22;11710;48.024;16.296;2023-06-24T06:37:24;18.60;99.90
4693;DHT22;11710;48.024;16.296;2023-06-24T06:39:51;18.60;99.90
4693;DHT22;11710;48.024;16.296;2023-06-24T06:42:18;18.60;99.90
4693;DHT22;11710;48.024;16.296;2023-06-24T06:44:45;18.60;99.90
4693;DHT22;11710;48.024;16.296;2023-06-24T06:47:13;18.60;99.90
4693;DHT22;11710;48.024;16.296;2023-06-24T06:49:40;18.70;99.90
4693;DHT22;11710;48.024;16.296;2023-06-24T06:52:08;18.60;99.90
4693;DHT22;11710;48.024;16.296;2023-06-24T06:54:35;18.60;99.90
4693;DHT22;11710;48.024;16.296;2023-06-24T06:57:03;18.50;99.90
4693;DHT22;11710;48.024;16.296;2023-06-24T06:59:31;18.50;99.90
4693;DHT22;11710;48.024;16.296;2023-06-24T07:01:58;18.50;99.90
4693;DHT22;11710;48.024;16.296;2023-06-24T07:04:25;18.50;99.90
4693;DHT22;11710;48.024;16.296;2023-06-24T07:06:52;18.50;99.90
4693;DHT22;11710;48.024;16.296;2023-06-24T07:09:21;18.50;99.90
4693;DHT22;11710;48.024;16.296;2023-06-24T07:11:48;18.50;99.90
4693;DHT22;11710;48.024;16.296;2023-06-24T07:14:15;18.50;99.90
4693;DHT22;11710;48.024;16.296;2023-06-24T07:16:42;18.50;99.90
4693;DHT22;11710;48.024;16.296;2023-06-24T07:19:09;18.60;99.90
4693;DHT22;11710;48.024;16.296;2023-06-24T07:21:37;18.70;99.90
4693;DHT22;11710;48.024;16.296;2023-06-24T07:24:05;18.70;99.90
4693;DHT22;11710;48.024;16.296;2023-06-24T07:26:33;18.80;99.90
4693;DHT22;11710;48.024;16.296;2023-06-24T07:29:01;18.90;99.90
4693;DHT22;11710;48.024;16.296;2023-06-24T07:31:28;18.90;99.90
4693;DHT22;11710;48.024;16.296;2023-06-24T07:33:55;18.90;99.90
4693;DHT22;11710;48.024;16.296;2023-06-24T07:36:22;18.90;99.90
4693;DHT22;11710;48.024;16.296;2023-06-24T07:38:49;19.00;99.90
4693;DHT22;11710;48.024;16.296;2023-06-24T07:41:17;19.00;99.90
4693;DHT22;11710;48.024;16.296;2023-06-24T07:43:45;19.00;99.90
4693;DHT22;11710;48.024;16.296;2023-06-24T07:46:13;18.90;99.90
4693;DHT22;11710;48.024;16.296;2023-06-24T07:48:40;19.00;99.90
4693;DHT22;11710;48.024;16.296;2023-06-24T07:51:07;19.00;99.90
4693;DHT22;11710;48.024;16.296;2023-06-24T07:53:34;19.00;99.90
4693;DHT22;11710;48.024;16.296;2023-06-24T07:56:01;18.90;99.90
4693;DHT22;11710;48.024;16.296;2023-06-24T07:58:29;18.90;99.90
4693;DHT22;11710;48.024;16.296;2023-06-24T08:00:57;18.90;99.90
4693;DHT22;11710;48.024;16.296;2023-06-24T08:03:24;19.00;99.90
4693;DHT22;11710;48.024;16.296;2023-06-24T08:05:51;19.10;99.90
4693;DHT22;11710;48.024;16.296;2023-06-24T08:08:18;19.10;99.90
4693;DHT22;11710;48.024;16.296;2023-06-24T08:10:46;19.20;99.90
4693;DHT22;11710;48.024;16.296;2023-06-24T08:13:13;19.10;99.90
4693;DHT22;11710;48.024;16.296;2023-06-24T08:15:40;19.20;99.90
4693;DHT22;11710;48.024;16.296;2023-06-24T08:18:09;19.20;99.90
4693;DHT22;11710;48.024;16.296;2023-06-24T08:20:36;19.20;99.90
4693;DHT22;11710;48.024;16.296;2023-06-24T08:23:03;19.30;99.90
4693;DHT22;11710;48.024;16.296;2023-06-24T08:25:30;19.30;99.90
4693;DHT22;11710;48.024;16.296;2023-06-24T08:27:58;19.50;99.90
4693;DHT22;11710;48.024;16.296;2023-06-24T08:30:25;19.50;99.90
4693;DHT22;11710;48.024;16.296;2023-06-24T08:32:52;19.60;99.90
4693;DHT22;11710;48.024;16.296;2023-06-24T08:35:21;19.70;99.90
4693;DHT22;11710;48.024;16.296;2023-06-24T08:37:48;19.80;99.90
4693;DHT22;11710;48.024;16.296;2023-06-24T08:40:15;19.70;99.90
4693;DHT22;11710;48.024;16.296;2023-06-24T08:42:43;19.80;99.90
4693;DHT22;11710;48.024;16.296;2023-06-24T08:45:11;19.80;99.90
4693;DHT22;11710;48.024;16.296;2023-06-24T08:47:40;19.80;99.90
4693;DHT22;11710;48.024;16.296;2023-06-24T08:50:11;19.80;99.90
4693;DHT22;11710;48.024;16.296;2023-06-24T08:52:45;19.90;99.90
4693;DHT22;11710;48.024;16.296;2023-06-24T08:55:17;19.90;99.90
4693;DHT22;11710;48.024;16.296;2023-06-24T08:57:46;19.90;99.90
4693;DHT22;11710;48.024;16.296;2023-06-24T09:00:14;19.90;99.90
4693;DHT22;11710;48.024;16.296;2023-06-24T09:02:41;19.80;99.90
4693;DHT22;11710;48.024;16.296;2023-06-24T09:05:09;19.80;99.90
4693;DHT22;11710;48.024;16.296;2023-06-24T09:07:36;19.90;99.90
4693;DHT22;11710;48.024;16.296;2023-06-24T09:10:06;19.80;99.90
4693;DHT22;11710;48.024;16.296;2023-06-24T09:12:34;19.90;99.90
4693;DHT22;11710;48.024;16.296;2023-06-24T09:15:03;20.00;99.90
4693;DHT22;11710;48.024;16.296;2023-06-24T09:17:30;20.00;99.90
4693;DHT22;11710;48.024;16.296;2023-06-24T09:20:04;20.00;99.90
4693;DHT22;11710;48.024;16.296;2023-06-24T09:22:32;20.00;99.90
4693;DHT22;11710;48.024;16.296;2023-06-24T09:25:01;20.00;99.90
4693;DHT22;11710;48.024;16.296;2023-06-24T09:27:31;20.10;99.90
4693;DHT22;11710;48.024;16.296;2023-06-24T09:30:00;20.10;99.90
4693;DHT22;11710;48.024;16.296;2023-06-24T09:32:29;20.10;99.90
4693;DHT22;11710;48.024;16.296;2023-06-24T09:34:57;20.10;99.90
4693;DHT22;11710;48.024;16.296;2023-06-24T09:37:25;20.20;99.90
4693;DHT22;11710;48.024;16.296;2023-06-24T09:39:56;20.20;99.90
4693;DHT22;11710;48.024;16.296;2023-06-24T09:42:24;20.20;99.90
4693;DHT22;11710;48.024;16.296;2023-06-24T09:44:55;20.20;99.90
4693;DHT22;11710;48.024;16.296;2023-06-24T09:47:23;20.30;99.90
4693;DHT22;11710;48.024;16.296;2023-06-24T09:49:54;20.40;99.90
4693;DHT22;11710;48.024;16.296;2023-06-24T09:52:22;20.50;99.90
4693;DHT22;11710;48.024;16.296;2023-06-24T09:54:51;20.50;99.90
4693;DHT22;11710;48.024;16.296;2023-06-24T09:57:21;20.50;99.90
4693;DHT22;11710;48.024;16.296;2023-06-24T09:59:53;20.40;99.90
4693;DHT22;11710;48.024;16.296;2023-06-24T10:02:21;20.30;99.90
4693;DHT22;11710;48.024;16.296;2023-06-24T10:04:49;20.30;99.90
4693;DHT22;11710;48.024;16.296;2023-06-24T10:07:18;20.30;99.90
4693;DHT22;11710;48.024;16.296;2023-06-24T10:09:46;20.40;99.90
4693;DHT22;11710;48.024;16.296;2023-06-24T10:12:14;20.50;99.90
4693;DHT22;11710;48.024;16.296;2023-06-24T10:14:41;20.60;99.90
4693;DHT22;11710;48.024;16.296;2023-06-24T10:17:08;20.70;99.90
4693;DHT22;11710;48.024;16.296;2023-06-24T10:19:41;20.70;99.90
4693;DHT22;11710;48.024;16.296;2023-06-24T10:22:09;20.70;99.90
4693;DHT22;11710;48.024;16.296;2023-06-24T10:24:38;20.70;99.90
4693;DHT22;11710;48.024;16.296;2023-06-24T10:27:09;20.60;99.90
4693;DHT22;11710;48.024;16.296;2023-06-24T10:29:37;20.50;99.90
4693;DHT22;11710;48.024;16.296;2023-06-24T10:32:05;20.50;99.90
4693;DHT22;11710;48.024;16.296;2023-06-24T10:34:42;20.50;99.90
4693;DHT22;11710;48.024;16.296;2023-06-24T10:37:12;20.50;99.90
4693;DHT22;11710;48.024;16.296;2023-06-24T10:39:44;20.40;99.90
4693;DHT22;11710;48.024;16.296;2023-06-24T10:42:33;20.30;99.90
4693;DHT22;11710;48.024;16.296;2023-06-24T10:45:18;20.20;99.90
4693;DHT22;11710;48.024;16.296;2023-06-24T10:47:47;20.20;99.90
4693;DHT22;11710;48.024;16.296;2023-06-24T10:50:18;20.10;99.90
4693;DHT22;11710;48.024;16.296;2023-06-24T10:52:46;20.00;99.90
4693;DHT22;11710;48.024;16.296;2023-06-24T10:55:15;19.90;99.90
4693;DHT22;11710;48.024;16.296;2023-06-24T10:57:42;20.00;99.90
4693;DHT22;11710;48.024;16.296;2023-06-24T11:00:11;20.00;99.90
4693;DHT22;11710;48.024;16.296;2023-06-24T11:02:38;20.00;99.90
4693;DHT22;11710;48.024;16.296;2023-06-24T11:05:06;20.00;99.90
4693;DHT22;11710;48.024;16.296;2023-06-24T11:07:37;20.00;99.90
4693;DHT22;11710;48.024;16.296;2023-06-24T11:10:06;20.00;99.90
4693;DHT22;11710;48.024;16.296;2023-06-24T11:12:35;20.20;99.90
4693;DHT22;11710;48.024;16.296;2023-06-24T11:15:04;20.20;99.90
4693;DHT22;11710;48.024;16.296;2023-06-24T11:17:33;20.20;99.90
4693;DHT22;11710;48.024;16.296;2023-06-24T11:20:02;20.30;99.90
4693;DHT22;11710;48.024;16.296;2023-06-24T11:22:29;20.40;99.90
4693;DHT22;11710;48.024;16.296;2023-06-24T11:24:58;20.40;99.90
4693;DHT22;11710;48.024;16.296;2023-06-24T11:27:26;20.40;99.90
4693;DHT22;11710;48.024;16.296;2023-06-24T11:29:53;20.40;99.90
4693;DHT22;11710;48.024;16.296;2023-06-24T11:32:21;20.50;99.90
4693;DHT22;11710;48.024;16.296;2023-06-24T11:34:48;20.40;99.90
4693;DHT22;11710;48.024;16.296;2023-06-24T11:37:18;20.30;99.90
4693;DHT22;11710;48.024;16.296;2023-06-24T11:40:01;20.30;99.90
4693;DHT22;11710;48.024;16.296;2023-06-24T11:42:30;20.30;99.90
4693;DHT22;11710;48.024;16.296;2023-06-24T11:45:01;20.30;99.90
4693;DHT22;11710;48.024;16.296;2023-06-24T11:47:31;20.30;99.90
4693;DHT22;11710;48.024;16.296;2023-06-24T11:50:00;20.10;99.90
4693;DHT22;11710;48.024;16.296;2023-06-24T11:52:42;20.00;99.90
4693;DHT22;11710;48.024;16.296;2023-06-24T11:55:16;20.00;99.90
4693;DHT22;11710;48.024;16.296;2023-06-24T11:57:50;19.90;99.90
4693;DHT22;11710;48.024;16.296;2023-06-24T12:00:20;19.70;99.90
4693;DHT22;11710;48.024;16.296;2023-06-24T12:02:50;19.60;99.90
4693;DHT22;11710;48.024;16.296;2023-06-24T12:05:24;19.50;99.90
4693;DHT22;11710;48.024;16.296;2023-06-24T12:07:58;19.40;99.90
4693;DHT22;11710;48.024;16.296;2023-06-24T12:10:28;19.30;99.90
4693;DHT22;11710;48.024;16.296;2023-06-24T12:12:58;19.30;99.90
4693;DHT22;11710;48.024;16.296;2023-06-24T12:15:25;19.30;99.90
4693;DHT22;11710;48.024;16.296;2023-06-24T12:17:52;19.20;99.90
4693;DHT22;11710;48.024;16.296;2023-06-24T12:20:20;19.20;99.90
4693;DHT22;11710;48.024;16.296;2023-06-24T12:22:47;19.20;99.90
4693;DHT22;11710;48.024;16.296;2023-06-24T12:25:16;19.20;99.90
4693;DHT22;11710;48.024;16.296;2023-06-24T12:27:45;19.20;99.90
4693;DHT22;11710;48.024;16.296;2023-06-24T12:30:13;19.20;99.90
4693;DHT22;11710;48.024;16.296;2023-06-24T12:32:43;19.10;99.90
4693;DHT22;11710;48.024;16.296;2023-06-24T12:35:10;19.20;99.90
4693;DHT22;11710;48.024;16.296;2023-06-24T12:37:37;19.20;99.90
4693;DHT22;11710;48.024;16.296;2023-06-24T12:40:06;19.20;99.90
4693;DHT22;11710;48.024;16.296;2023-06-24T12:42:34;19.20;99.90
4693;DHT22;11710;48.024;16.296;2023-06-24T12:45:03;19.20;99.90
4693;DHT22;11710;48.024;16.296;2023-06-24T12:47:30;19.20;99.90
4693;DHT22;11710;48.024;16.296;2023-06-24T12:49:57;19.10;99.90
4693;DHT22;11710;48.024;16.296;2023-06-24T12:52:25;19.10;99.90
4693;DHT22;11710;48.024;16.296;2023-06-24T12:54:52;19.10;99.90
4693;DHT22;11710;48.024;16.296;2023-06-24T12:57:19;19.20;99.90
4693;DHT22;11710;48.024;16.296;2023-06-24T12:59:46;19.40;99.90
4693;DHT22;11710;48.024;16.296;2023-06-24T13:02:15;19.40;99.90
4693;DHT22;11710;48.024;16.296;2023-06-24T13:04:44;19.50;99.90
4693;DHT22;11710;48.024;16.296;2023-06-24T13:07:13;19.50;99.90
4693;DHT22;11710;48.024;16.296;2023-06-24T13:09:42;19.60;99.90
4693;DHT22;11710;48.024;16.296;2023-06-24T13:12:09;19.60;99.90
4693;DHT22;11710;48.024;16.296;2023-06-24T13:14:37;19.60;99.90
4693;DHT22;11710;48.024;16.296;2023-06-24T13:17:04;19.60;99.90
4693;DHT22;11710;48.024;16.296;2023-06-24T13:19:33;19.70;99.90
4693;DHT22;11710;48.024;16.296;2023-06-24T13:22:00;19.70;99.90
4693;DHT22;11710;48.024;16.296;2023-06-24T13:24:27;19.80;99.90
4693;DHT22;11710;48.024;16.296;2023-06-24T13:26:54;19.80;99.90
4693;DHT22;11710;48.024;16.296;2023-06-24T13:29:21;19.90;99.90
4693;DHT22;11710;48.024;16.296;2023-06-24T13:31:49;19.90;99.90
4693;DHT22;11710;48.024;16.296;2023-06-24T13:34:16;20.00;99.90
4693;DHT22;11710;48.024;16.296;2023-06-24T13:36:45;20.00;99.90
4693;DHT22;11710;48.024;16.296;2023-06-24T13:39:12;20.10;99.90
4693;DHT22;11710;48.024;16.296;2023-06-24T13:41:44;20.20;99.90
4693;DHT22;11710;48.024;16.296;2023-06-24T13:44:11;20.20;99.90
4693;DHT22;11710;48.024;16.296;2023-06-24T13:46:38;20.20;99.90
4693;DHT22;11710;48.024;16.296;2023-06-24T13:49:05;20.30;99.90
4693;DHT22;11710;48.024;16.296;2023-06-24T13:51:33;20.30;99.90
4693;DHT22;11710;48.024;16.296;2023-06-24T13:54:02;20.30;99.90
4693;DHT22;11710;48.024;16.296;2023-06-24T13:56:29;20.30;99.90
4693;DHT22;11710;48.024;16.296;2023-06-24T13:58:57;20.40;99.90
4693;DHT22;11710;48.024;16.296;2023-06-24T14:01:24;20.30;99.90
4693;DHT22;11710;48.024;16.296;2023-06-24T14:03:55;20.30;99.90
4693;DHT22;11710;48.024;16.296;2023-06-24T14:06:23;20.30;99.90
4693;DHT22;11710;48.024;16.296;2023-06-24T14:08:51;20.40;99.90
4693;DHT22;11710;48.024;16.296;2023-06-24T14:11:20;20.50;99.90
4693;DHT22;11710;48.024;16.296;2023-06-24T14:13:47;20.50;99.90
4693;DHT22;11710;48.024;16.296;2023-06-24T14:16:15;20.50;99.90
4693;DHT22;11710;48.024;16.296;2023-06-24T14:18:43;20.50;99.90
4693;DHT22;11710;48.024;16.296;2023-06-24T14:21:10;20.60;99.90
4693;DHT22;11710;48.024;16.296;2023-06-24T14:23:37;20.60;99.90
4693;DHT22;11710;48.024;16.296;2023-06-24T14:26:06;20.60;99.90
4693;DHT22;11710;48.024;16.296;2023-06-24T14:28:34;20.60;99.90
4693;DHT22;11710;48.024;16.296;2023-06-24T14:31:01;20.60;99.90
4693;DHT22;11710;48.024;16.296;2023-06-24T14:33:29;20.60;99.90
4693;DHT22;11710;48.024;16.296;2023-06-24T14:35:56;20.70;99.90
4693;DHT22;11710;48.024;16.296;2023-06-24T14:38:23;20.70;99.90
4693;DHT22;11710;48.024;16.296;2023-06-24T14:40:50;20.70;99.90
4693;DHT22;11710;48.024;16.296;2023-06-24T14:43:17;20.70;99.90
4693;DHT22;11710;48.024;16.296;2023-06-24T14:45:46;20.70;99.90
4693;DHT22;11710;48.024;16.296;2023-06-24T14:48:13;20.70;99.90
4693;DHT22;11710;48.024;16.296;2023-06-24T14:50:40;20.70;99.90
4693;DHT22;11710;48.024;16.296;2023-06-24T14:53:07;20.70;99.90
4693;DHT22;11710;48.024;16.296;2023-06-24T14:55:35;20.80;99.90
4693;DHT22;11710;48.024;16.296;2023-06-24T14:58:02;20.90;99.90
4693;DHT22;11710;48.024;16.296;2023-06-24T15:00:29;20.90;99.90
4693;DHT22;11710;48.024;16.296;2023-06-24T15:02:58;21.00;99.90
4693;DHT22;11710;48.024;16.296;2023-06-24T15:05:25;20.90;99.90
4693;DHT22;11710;48.024;16.296;2023-06-24T15:07:52;21.00;99.90
4693;DHT22;11710;48.024;16.296;2023-06-24T15:10:19;21.00;99.90
4693;DHT22;11710;48.024;16.296;2023-06-24T15:12:46;21.00;99.90
4693;DHT22;11710;48.024;16.296;2023-06-24T15:15:14;21.00;99.90
4693;DHT22;11710;48.024;16.296;2023-06-24T15:17:42;21.00;99.90
4693;DHT22;11710;48.024;16.296;2023-06-24T15:20:13;21.10;99.90
4693;DHT22;11710;48.024;16.296;2023-06-24T15:22:41;21.20;99.90
4693;DHT22;11710;48.024;16.296;2023-06-24T15:25:09;21.30;99.90
4693;DHT22;11710;48.024;16.296;2023-06-24T15:27:36;21.30;99.90
4693;DHT22;11710;48.024;16.296;2023-06-24T15:30:05;21.30;99.90
4693;DHT22;11710;48.024;16.296;2023-06-24T15:32:32;21.40;99.90
4693;DHT22;11710;48.024;16.296;2023-06-24T15:35:02;21.40;99.90
4693;DHT22;11710;48.024;16.296;2023-06-24T15:37:31;21.40;99.90
4693;DHT22;11710;48.024;16.296;2023-06-24T15:39:58;21.40;99.90
4693;DHT22;11710;48.024;16.296;2023-06-24T15:42:26;21.50;99.90
4693;DHT22;11710;48.024;16.296;2023-06-24T15:44:53;21.70;99.90
4693;DHT22;11710;48.024;16.296;2023-06-24T15:47:20;21.80;99.90
4693;DHT22;11710;48.024;16.296;2023-06-24T15:49:47;21.90;99.90
4693;DHT22;11710;48.024;16.296;2023-06-24T15:52:15;21.90;99.90
4693;DHT22;11710;48.024;16.296;2023-06-24T15:54:44;22.00;99.90
4693;DHT22;11710;48.024;16.296;2023-06-24T15:57:11;22.10;99.90
4693;DHT22;11710;48.024;16.296;2023-06-24T15:59:38;22.00;99.90
4693;DHT22;11710;48.024;16.296;2023-06-24T16:02:06;22.00;99.90
4693;DHT22;11710;48.024;16.296;2023-06-24T16:04:33;22.00;99.90
4693;DHT22;11710;48.024;16.296;2023-06-24T16:07:00;22.00;99.90
4693;DHT22;11710;48.024;16.296;2023-06-24T16:09:27;21.90;99.90
4693;DHT22;11710;48.024;16.296;2023-06-24T16:11:56;21.90;99.90
4693;DHT22;11710;48.024;16.296;2023-06-24T16:14:23;22.00;99.90
4693;DHT22;11710;48.024;16.296;2023-06-24T16:16:50;22.10;99.90
4693;DHT22;11710;48.024;16.296;2023-06-24T16:19:19;22.20;99.90
4693;DHT22;11710;48.024;16.296;2023-06-24T16:21:46;22.30;99.90
4693;DHT22;11710;48.024;16.296;2023-06-24T16:24:13;22.40;99.90
4693;DHT22;11710;48.024;16.296;2023-06-24T16:26:40;22.50;99.90
4693;DHT22;11710;48.024;16.296;2023-06-24T16:29:09;22.60;99.90
4693;DHT22;11710;48.024;16.296;2023-06-24T16:31:36;22.70;99.90
4693;DHT22;11710;48.024;16.296;2023-06-24T16:34:03;22.70;99.90
4693;DHT22;11710;48.024;16.296;2023-06-24T16:36:30;22.60;99.90
4693;DHT22;11710;48.024;16.296;2023-06-24T16:38:57;22.60;99.90
4693;DHT22;11710;48.024;16.296;2023-06-24T16:41:25;22.50;99.90
4693;DHT22;11710;48.024;16.296;2023-06-24T16:43:52;22.40;99.90
4693;DHT22;11710;48.024;16.296;2023-06-24T16:46:21;22.30;99.90
4693;DHT22;11710;48.024;16.296;2023-06-24T16:48:48;22.20;99.90
4693;DHT22;11710;48.024;16.296;2023-06-24T16:51:15;22.00;99.90
4693;DHT22;11710;48.024;16.296;2023-06-24T16:53:42;22.00;99.90
4693;DHT22;11710;48.024;16.296;2023-06-24T16:56:09;21.90;99.90
4693;DHT22;11710;48.024;16.296;2023-06-24T16:58:37;21.80;99.90
4693;DHT22;11710;48.024;16.296;2023-06-24T17:01:04;21.80;99.90
4693;DHT22;11710;48.024;16.296;2023-06-24T17:03:32;21.70;99.90
4693;DHT22;11710;48.024;16.296;2023-06-24T17:06:00;21.60;99.90
4693;DHT22;11710;48.024;16.296;2023-06-24T17:08:27;21.50;99.90
4693;DHT22;11710;48.024;16.296;2023-06-24T17:10:54;21.40;99.90
4693;DHT22;11710;48.024;16.296;2023-06-24T17:13:21;21.30;99.90
4693;DHT22;11710;48.024;16.296;2023-06-24T17:15:48;21.30;99.90
4693;DHT22;11710;48.024;16.296;2023-06-24T17:18:15;21.20;99.90
4693;DHT22;11710;48.024;16.296;2023-06-24T17:20:44;21.10;99.90
4693;DHT22;11710;48.024;16.296;2023-06-24T17:23:11;21.10;99.90
4693;DHT22;11710;48.024;16.296;2023-06-24T17:25:38;21.10;99.90
4693;DHT22;11710;48.024;16.296;2023-06-24T17:28:05;21.10;99.90
4693;DHT22;11710;48.024;16.296;2023-06-24T17:30:32;21.00;99.90
4693;DHT22;11710;48.024;16.296;2023-06-24T17:33:00;21.00;99.90
4693;DHT22;11710;48.024;16.296;2023-06-24T17:35:27;20.90;99.90
4693;DHT22;11710;48.024;16.296;2023-06-24T17:37:55;20.80;99.90
4693;DHT22;11710;48.024;16.296;2023-06-24T17:40:23;20.80;99.90
4693;DHT22;11710;48.024;16.296;2023-06-24T17:42:50;20.70;99.90
4693;DHT22;11710;48.024;16.296;2023-06-24T17:45:18;20.60;99.90
4693;DHT22;11710;48.024;16.296;2023-06-24T17:47:45;20.60;99.90
4693;DHT22;11710;48.024;16.296;2023-06-24T17:50:12;20.60;99.90
4693;DHT22;11710;48.024;16.296;2023-06-24T17:52:40;20.60;99.90
4693;DHT22;11710;48.024;16.296;2023-06-24T17:55:09;20.60;99.90
4693;DHT22;11710;48.024;16.296;2023-06-24T17:57:36;20.60;99.90
4693;DHT22;11710;48.024;16.296;2023-06-24T18:00:05;20.50;99.90
4693;DHT22;11710;48.024;16.296;2023-06-24T18:02:33;20.50;99.90
4693;DHT22;11710;48.024;16.296;2023-06-24T18:05:00;20.40;99.90
4693;DHT22;11710;48.024;16.296;2023-06-24T18:07:27;20.40;99.90
4693;DHT22;11710;48.024;16.296;2023-06-24T18:09:54;20.30;99.90
4693;DHT22;11710;48.024;16.296;2023-06-24T18:12:23;20.30;99.90
4693;DHT22;11710;48.024;16.296;2023-06-24T18:14:51;20.20;99.90
4693;DHT22;11710;48.024;16.296;2023-06-24T18:17:19;20.20;99.90
4693;DHT22;11710;48.024;16.296;2023-06-24T18:19:46;20.10;99.90
4693;DHT22;11710;48.024;16.296;2023-06-24T18:22:14;20.10;99.90
4693;DHT22;11710;48.024;16.296;2023-06-24T18:24:41;20.10;99.90
4693;DHT22;11710;48.024;16.296;2023-06-24T18:27:08;20.10;99.90
4693;DHT22;11710;48.024;16.296;2023-06-24T18:29:37;20.00;99.90
4693;DHT22;11710;48.024;16.296;2023-06-24T18:32:05;20.00;99.90
4693;DHT22;11710;48.024;16.296;2023-06-24T18:34:32;20.00;99.90
4693;DHT22;11710;48.024;16.296;2023-06-24T18:36:59;20.00;99.90
4693;DHT22;11710;48.024;16.296;2023-06-24T18:39:26;20.00;99.90
4693;DHT22;11710;48.024;16.296;2023-06-24T18:41:53;20.00;99.90
4693;DHT22;11710;48.024;16.296;2023-06-24T18:44:20;20.00;99.90
4693;DHT22;11710;48.024;16.296;2023-06-24T18:46:49;20.00;99.90
4693;DHT22;11710;48.024;16.296;2023-06-24T18:49:16;20.00;99.90
4693;DHT22;11710;48.024;16.296;2023-06-24T18:51:43;20.00;99.90
4693;DHT22;11710;48.024;16.296;2023-06-24T18:54:11;20.00;99.90
4693;DHT22;11710;48.024;16.296;2023-06-24T18:56:38;20.00;99.90
4693;DHT22;11710;48.024;16.296;2023-06-24T18:59:05;19.90;99.90
4693;DHT22;11710;48.024;16.296;2023-06-24T19:01:32;19.90;99.90
4693;DHT22;11710;48.024;16.296;2023-06-24T19:04:01;19.90;99.90
4693;DHT22;11710;48.024;16.296;2023-06-24T19:06:28;19.90;99.90
4693;DHT22;11710;48.024;16.296;2023-06-24T19:08:55;19.90;99.90
4693;DHT22;11710;48.024;16.296;2023-06-24T19:11:23;19.80;99.90
4693;DHT22;11710;48.024;16.296;2023-06-24T19:13:50;19.80;99.90
4693;DHT22;11710;48.024;16.296;2023-06-24T19:16:18;19.80;99.90
4693;DHT22;11710;48.024;16.296;2023-06-24T19:18:45;19.70;99.90
4693;DHT22;11710;48.024;16.296;2023-06-24T19:21:13;19.70;99.90
4693;DHT22;11710;48.024;16.296;2023-06-24T19:23:41;19.80;99.90
4693;DHT22;11710;48.024;16.296;2023-06-24T19:26:09;19.70;99.90
4693;DHT22;11710;48.024;16.296;2023-06-24T19:28:36;19.80;99.90
4693;DHT22;11710;48.024;16.296;2023-06-24T19:31:03;19.80;99.90
4693;DHT22;11710;48.024;16.296;2023-06-24T19:33:30;19.80;99.90
4693;DHT22;11710;48.024;16.296;2023-06-24T19:35:58;19.80;99.90
4693;DHT22;11710;48.024;16.296;2023-06-24T19:38:26;19.80;99.90
4693;DHT22;11710;48.024;16.296;2023-06-24T19:40:53;19.80;99.90
4693;DHT22;11710;48.024;16.296;2023-06-24T19:43:21;19.80;99.90
4693;DHT22;11710;48.024;16.296;2023-06-24T19:45:49;19.80;99.90
4693;DHT22;11710;48.024;16.296;2023-06-24T19:48:17;19.80;99.90
4693;DHT22;11710;48.024;16.296;2023-06-24T19:50:45;19.80;99.90
4693;DHT22;11710;48.024;16.296;2023-06-24T19:53:12;19.80;99.90
4693;DHT22;11710;48.024;16.296;2023-06-24T19:55:41;19.80;99.90
4693;DHT22;11710;48.024;16.296;2023-06-24T19:58:08;19.80;99.90
4693;DHT22;11710;48.024;16.296;2023-06-24T20:00:35;19.80;99.90
4693;DHT22;11710;48.024;16.296;2023-06-24T20:03:03;19.90;99.90
4693;DHT22;11710;48.024;16.296;2023-06-24T20:05:31;19.90;99.90
4693;DHT22;11710;48.024;16.296;2023-06-24T20:07:58;19.80;99.90